Time;durP1;ratioP1;P1;durP2;ratioP2;P2;SDS_P1;SDS_P2;PMS_P1;PMS_P2;Temp;Humidity;BMP_temperature;BMP_pressure;BME280_temperature;BME280_humidity;BME280_pressure;Samples;Min_cycle;Max_cycle;Signal;HPM_P1;HPM_P2
2022/03/14 00:00:20;;;;;;;35.03;18.67;;;9.70;97.70;;;;;;4861678;29;20241;-69
2022/03/14 00:02:47;;;;;;;35.50;19.17;;;10.50;94.40;;;;;;4861401;29;20041;-69
2022/03/14 00:05:15;;;;;;;37.03;18.42;;;;;;;;;;4861157;29;20182;-69
2022/03/14 00:07:47;;;;;;;37.47;18.98;;;10.60;98.40;;;;;;4859072;29;20048;-69
2022/03/14 00:10:15;;;;;;;32.83;17.42;;;10.30;95.20;;;;;;4861296;29;20052;-69
2022/03/14 00:12:43;;;;;;;31.17;16.67;;;10.40;95.30;;;;;;4858448;29;20041;-69
2022/03/14 00:15:13;;;;;;;29.27;17.52;;;10.20;95.50;;;;;;4859388;29;20085;-69
2022/03/14 00:17:41;;;;;;;29.70;16.17;;;;;;;;;;4861265;29;20494;-69
2022/03/14 00:20:10;;;;;;;31.67;17.05;;;9.90;99.00;;;;;;4831194;29;20045;-70
2022/03/14 00:22:37;;;;;;;29.75;16.42;;;;;;;;;;4862291;29;20474;-70
2022/03/14 00:25:03;;;;;;;30.23;16.02;;;;;;;;;;4863744;29;20128;-69
2022/03/14 00:27:29;;;;;;;27.60;15.65;;;;;;;;;;4849063;29;20502;-70
2022/03/14 00:29:55;;;;;;;25.20;14.68;;;;;;;;;;4851079;29;20049;-70
2022/03/14 00:32:21;;;;;;;26.70;15.10;;;;;;;;;;4857286;29;20509;-69
2022/03/14 00:34:47;;;;;;;25.05;14.30;;;;;;;;;;4864283;29;20067;-70
2022/03/14 00:37:14;;;;;;;22.15;12.60;;;;;;;;;;4848276;29;20041;-69
2022/03/14 00:39:40;;;;;;;21.80;12.40;;;9.30;99.90;;;;;;4861662;29;20049;-70
2022/03/14 00:42:06;;;;;;;25.05;12.55;;;;;;;;;;4864521;29;20057;-69
2022/03/14 00:44:32;;;;;;;23.05;12.98;;;;;;;;;;4848930;29;20046;-70
2022/03/14 00:46:58;;;;;;;22.50;12.75;;;;;;;;;;4864094;29;20033;-71
2022/03/14 00:49:25;;;;;;;20.02;11.77;;;;;;;;;;4861832;29;20558;-70
2022/03/14 00:51:51;;;;;;;20.80;12.98;;;;;;;;;;4864123;29;20041;-70
2022/03/14 00:54:17;;;;;;;21.52;11.40;;;;;;;;;;4863703;29;20088;-70
2022/03/14 00:56:43;;;;;;;17.10;11.02;;;;;;;;;;4851961;29;20042;-69
2022/03/14 00:59:09;;;;;;;18.17;10.93;;;;;;;;;;4845287;29;20049;-70
2022/03/14 01:01:35;;;;;;;17.50;11.05;;;;;;;;;;4845650;29;20364;-69
2022/03/14 01:04:01;;;;;;;15.27;9.15;;;;;;;;;;4863869;29;20478;-69
2022/03/14 01:06:27;;;;;;;15.57;10.00;;;;;;;;;;4848019;29;20394;-70
2022/03/14 01:08:54;;;;;;;14.90;9.30;;;;;;;;;;4863966;29;20056;-69
2022/03/14 01:11:20;;;;;;;13.45;8.98;;;;;;;;;;4864185;29;20052;-69
2022/03/14 01:13:46;;;;;;;14.30;9.35;;;;;;;;;;4863998;29;20148;-70
2022/03/14 01:16:12;;;;;;;17.08;9.70;;;;;;;;;;4863848;29;20049;-70
2022/03/14 01:18:38;;;;;;;17.42;9.02;;;;;;;;;;4863578;29;20478;-70
2022/03/14 01:21:04;;;;;;;15.50;9.15;;;;;;;;;;4865545;29;20128;-70
2022/03/14 01:23:30;;;;;;;13.30;8.20;;;;;;;;;;4863551;29;20092;-69
2022/03/14 01:25:56;;;;;;;12.02;8.13;;;;;;;;;;4863701;29;20044;-69
2022/03/14 01:28:22;;;;;;;15.68;9.48;;;;;;;;;;4863713;29;20470;-69
2022/03/14 01:30:48;;;;;;;11.18;7.65;;;;;;;;;;4880092;29;20505;-69
2022/03/14 01:33:15;;;;;;;13.95;8.30;;;;;;;;;;4866429;29;20087;-70
2022/03/14 01:35:41;;;;;;;14.07;7.85;;;;;;;;;;4863247;29;20055;-70
2022/03/14 01:38:08;;;;;;;11.82;7.55;;;;;;;;;;4863534;29;20076;-70
2022/03/14 01:40:34;;;;;;;13.98;8.82;;;;;;;;;;4863348;29;20109;-70
2022/03/14 01:43:00;;;;;;;16.25;10.13;;;;;;;;;;4863427;29;20108;-69
2022/03/14 01:45:26;;;;;;;17.15;10.18;;;;;;;;;;4863283;29;20037;-69
2022/03/14 01:47:53;;;;;;;19.65;11.15;;;;;;;;;;4863534;29;20045;-70
2022/03/14 01:50:19;;;;;;;17.65;11.15;;;;;;;;;;4847637;29;20513;-70
2022/03/14 01:52:45;;;;;;;21.60;12.68;;;9.80;99.10;;;;;;4847558;29;20072;-69
2022/03/14 01:55:16;;;;;;;18.98;11.88;;;10.50;99.90;;;;;;4861178;29;20049;-69
2022/03/14 01:57:42;;;;;;;20.70;12.98;;;;;;;;;;4863107;29;20371;-70
2022/03/14 02:00:11;;;;;;;21.42;13.55;;;9.90;99.50;;;;;;4837918;29;20049;-69
2022/03/14 02:02:37;;;;;;;19.38;11.30;;;;;;;;;;4862916;29;20048;-70
2022/03/14 02:05:03;;;;;;;18.80;10.63;;;10.60;99.90;;;;;;4863231;29;20202;-70
2022/03/14 02:07:29;;;;;;;16.35;10.80;;;;;;;;;;4862689;29;20045;-70
2022/03/14 02:09:55;;;;;;;17.63;10.93;;;;;;;;;;4862597;29;20528;-70
2022/03/14 02:12:21;;;;;;;17.38;10.23;;;;;;;;;;4859812;29;20509;-69
2022/03/14 02:14:47;;;;;;;19.05;11.68;;;;;;;;;;4862902;29;20047;-69
2022/03/14 02:17:20;;;;;;;16.13;10.43;;;9.90;99.70;;;;;;4845686;29;20073;-70
2022/03/14 02:19:46;;;;;;;17.83;10.32;;;;;;;;;;4862963;29;20072;-70
2022/03/14 02:22:13;;;;;;;17.00;10.40;;;8.90;99.90;;;;;;4860325;29;20045;-71
2022/03/14 02:24:41;;;;;;;17.70;11.15;;;9.70;99.80;;;;;;4878763;29;20043;-69
2022/03/14 02:27:07;;;;;;;18.48;11.35;;;;;;;;;;4862313;29;20052;-70
2022/03/14 02:29:33;;;;;;;19.80;12.00;;;;;;;;;;4860735;29;20076;-70
2022/03/14 02:31:59;;;;;;;22.23;13.82;;;;;;;;;;4846621;29;20124;-70
2022/03/14 02:34:25;;;;;;;28.05;15.80;;;;;;;;;;4860560;29;20044;-70
2022/03/14 02:36:52;;;;;;;30.80;16.05;;;;;;;;;;4846231;29;20064;-70
2022/03/14 02:39:18;;;;;;;26.95;16.25;;;;;;;;;;4859314;29;20041;-70
2022/03/14 02:41:45;;;;;;;25.42;15.50;;;;;;;;;;4861603;29;20126;-70
2022/03/14 02:44:11;;;;;;;26.08;15.38;;;;;;;;;;4861047;29;20402;-70
2022/03/14 02:46:38;;;;;;;26.55;15.45;;;;;;;;;;4846608;29;20482;-70
2022/03/14 02:49:09;;;;;;;27.42;15.95;;;9.70;99.90;;;;;;4857862;29;20125;-70
2022/03/14 02:51:35;;;;;;;27.00;16.48;;;;;;;;;;4877729;29;20377;-70
2022/03/14 02:54:04;;;;;;;26.55;16.05;;;;;;;;;;4849390;29;20074;-69
2022/03/14 02:56:30;;;;;;;28.02;15.88;;;;;;;;;;4841632;29;20041;-70
2022/03/14 02:58:56;;;;;;;29.60;17.67;;;;;;;;;;4860302;29;20491;-70
2022/03/14 03:01:22;;;;;;;28.67;16.65;;;;;;;;;;4843472;29;20069;-70
2022/03/14 03:03:49;;;;;;;27.58;16.30;;;;;;;;;;4843631;29;20041;-70
2022/03/14 03:06:17;;;;;;;29.45;17.23;;;9.60;99.90;;;;;;4819323;29;20111;-70
2022/03/14 03:08:44;;;;;;;32.17;17.90;;;;;;;;;;4828503;29;20496;-70
2022/03/14 03:11:13;;;;;;;29.92;17.90;;;;;;;;;;4843629;29;20079;-70
2022/03/14 03:13:41;;;;;;;30.67;18.05;;;9.40;99.90;;;;;;4830204;29;20045;-70
2022/03/14 03:16:08;;;;;;;33.20;19.20;;;9.40;99.90;;;;;;4843405;29;20451;-70
2022/03/14 03:18:35;;;;;;;31.50;18.13;;;9.70;99.90;;;;;;4843527;29;20045;-70
2022/03/14 03:21:01;;;;;;;36.20;19.25;;;;;;;;;;4843059;29;20041;-70
2022/03/14 03:23:27;;;;;;;32.50;18.58;;;10.40;99.90;;;;;;4842964;29;20045;-70
2022/03/14 03:25:53;;;;;;;29.77;17.75;;;;;;;;;;4843118;29;20037;-70
2022/03/14 03:28:19;;;;;;;32.33;17.88;;;;;;;;;;4843019;29;20474;-70
2022/03/14 03:30:45;;;;;;;28.30;17.42;;;;;;;;;;4829816;29;20049;-70
2022/03/14 03:33:11;;;;;;;35.13;18.30;;;;;;;;;;4825047;29;20114;-70
2022/03/14 03:35:37;;;;;;;30.80;17.38;;;;;;;;;;4843202;29;20398;-70
2022/03/14 03:38:03;;;;;;;29.45;17.00;;;;;;;;;;4826397;29;20084;-70
2022/03/14 03:40:30;;;;;;;28.42;17.73;;;;;;;;;;4843584;29;20037;-70
2022/03/14 03:42:56;;;;;;;30.92;18.20;;;;;;;;;;4830819;29;20049;-70
2022/03/14 03:45:22;;;;;;;27.20;16.67;;;;;;;;;;4843372;29;20371;-69
2022/03/14 03:47:48;;;;;;;26.38;15.40;;;;;;;;;;4839996;29;20042;-70
2022/03/14 03:50:16;;;;;;;26.67;15.25;;;;;;;;;;4843154;29;20049;-70
2022/03/14 03:52:42;;;;;;;25.27;14.65;;;9.50;99.90;;;;;;4845244;29;20064;-70
2022/03/14 03:55:09;;;;;;;29.92;14.82;;;;;;;;;;4880545;29;20052;-70
2022/03/14 03:57:35;;;;;;;22.42;14.38;;;9.30;99.90;;;;;;4863697;29;20072;-70
2022/03/14 04:00:07;;;;;;;21.33;13.45;;;9.50;99.90;;;;;;4865314;29;20097;-70
2022/03/14 04:02:38;;;;;;;19.77;12.87;;;9.40;99.90;;;;;;4865045;29;20133;-70
2022/03/14 04:05:05;;;;;;;21.23;11.32;;;8.50;99.90;;;;;;4865451;29;20055;-70
2022/03/14 04:07:32;;;;;;;17.35;10.98;;;;;;;;;;4862631;29;20048;-70
2022/03/14 04:09:59;;;;;;;17.95;10.98;;;;;;;;;;4864887;29;20120;-70
2022/03/14 04:12:28;;;;;;;19.73;10.35;;;;;;;;;;4841924;29;20045;-70
2022/03/14 04:15:04;;;;;;;19.80;9.63;;;9.50;99.90;;;;;;4863942;29;20048;-70
2022/03/14 04:17:32;;;;;;;14.05;9.88;;;;;;;;;;4862475;29;20046;-70
2022/03/14 04:20:00;;;;;;;16.70;10.13;;;;;;;;;;4864747;29;20052;-70
2022/03/14 04:22:27;;;;;;;15.75;9.90;;;;;;;;;;4864509;29;20478;-70
2022/03/14 04:24:53;;;;;;;14.95;8.77;;;;;;;;;;4837186;29;20475;-70
2022/03/14 04:27:20;;;;;;;13.45;8.52;;;;;;;;;;4858126;29;20533;-70
2022/03/14 04:29:46;;;;;;;17.15;9.60;;;;;;;;;;4846740;29;20038;-70
2022/03/14 04:32:12;;;;;;;16.23;9.38;;;;;;;;;;4858933;29;20041;-70
2022/03/14 04:34:38;;;;;;;13.30;8.82;;;;;;;;;;4849841;29;20048;-70
2022/03/14 04:37:05;;;;;;;13.25;8.35;;;;;;;;;;4851929;29;20049;-70
2022/03/14 04:39:32;;;;;;;13.00;8.32;;;;;;;;;;4864482;29;20045;-70
2022/03/14 04:41:58;;;;;;;11.63;7.70;;;;;;;;;;4855527;29;20033;-70
2022/03/14 04:44:24;;;;;;;12.75;8.35;;;;;;;;;;4864202;29;20045;-70
2022/03/14 04:46:50;;;;;;;12.23;7.88;;;10.50;99.90;;;;;;4864273;29;20048;-70
2022/03/14 04:49:16;;;;;;;13.80;8.60;;;;;;;;;;4873970;29;20573;-70
2022/03/14 04:51:42;;;;;;;14.35;8.27;;;;;;;;;;4864811;29;20049;-70
2022/03/14 04:54:08;;;;;;;11.52;8.20;;;;;;;;;;4856446;29;20076;-70
2022/03/14 04:56:34;;;;;;;13.35;7.93;;;;;;;;;;4843091;29;20045;-70
2022/03/14 04:59:01;;;;;;;11.57;7.53;;;;;;;;;;4857312;29;20045;-70
2022/03/14 05:01:27;;;;;;;10.93;7.03;;;;;;;;;;4865170;29;20059;-70
2022/03/14 05:03:53;;;;;;;11.80;6.97;;;;;;;;;;4882056;29;20041;-70
2022/03/14 05:06:19;;;;;;;13.00;7.25;;;;;;;;;;4864897;29;20082;-70
2022/03/14 05:08:46;;;;;;;10.73;6.88;;;9.30;99.90;;;;;;4865272;29;20041;-70
2022/03/14 05:11:13;;;;;;;9.88;6.95;;;;;;;;;;4868649;29;20044;-70
2022/03/14 05:13:39;;;;;;;9.95;6.20;;;9.50;99.90;;;;;;4883855;29;20052;-70
2022/03/14 05:16:05;;;;;;;12.70;7.32;;;;;;;;;;4883657;29;20055;-70
2022/03/14 05:18:32;;;;;;;7.85;5.72;;;;;;;;;;4864038;29;20037;-70
2022/03/14 05:20:58;;;;;;;9.30;6.55;;;;;;;;;;4864190;29;20044;-70
2022/03/14 05:23:24;;;;;;;9.93;6.18;;;;;;;;;;4854743;29;20044;-70
2022/03/14 05:25:51;;;;;;;9.05;6.43;;;;;;;;;;4855477;29;20045;-70
2022/03/14 05:28:17;;;;;;;8.57;5.55;;;;;;;;;;4863556;29;20053;-70
2022/03/14 05:30:43;;;;;;;9.18;6.18;;;;;;;;;;4848981;29;20034;-69
2022/03/14 05:33:09;;;;;;;9.30;5.75;;;;;;;;;;4852807;29;20179;-70
2022/03/14 05:35:35;;;;;;;9.50;6.70;;;;;;;;;;4863033;29;20045;-71
2022/03/14 05:38:01;;;;;;;7.95;5.55;;;;;;;;;;4848581;29;20044;-70
2022/03/14 05:40:27;;;;;;;9.00;5.63;;;;;;;;;;4862941;29;20033;-72
2022/03/14 05:42:54;;;;;;;6.80;5.20;;;;;;;;;;4862650;29;20132;-71
2022/03/14 05:45:20;;;;;;;7.65;5.20;;;9.60;99.90;;;;;;4848759;29;20067;-70
2022/03/14 05:47:46;;;;;;;7.68;4.93;;;;;;;;;;4863197;29;20052;-70
2022/03/14 05:50:12;;;;;;;7.80;4.93;;;;;;;;;;4851118;29;20129;-71
2022/03/14 05:52:39;;;;;;;6.47;4.28;;;9.40;99.90;;;;;;4851793;29;20049;-71
2022/03/14 05:55:05;;;;;;;7.32;4.65;;;10.20;99.90;;;;;;4863394;29;20113;-71
2022/03/14 05:57:32;;;;;;;20.45;5.53;;;9.60;99.90;;;;;;4878619;29;20059;-74
2022/03/14 05:59:59;;;;;;;9.05;4.68;;;;;;;;;;4862448;29;20068;-71
2022/03/14 06:02:25;;;;;;;8.10;4.80;;;9.50;99.90;;;;;;4861529;29;20045;-71
2022/03/14 06:04:52;;;;;;;10.40;4.85;;;9.30;99.90;;;;;;4863043;29;20478;-71
2022/03/14 06:07:21;;;;;;;7.15;4.65;;;;;;;;;;4878452;29;20078;-71
2022/03/14 06:09:48;;;;;;;5.63;4.18;;;9.40;99.90;;;;;;4845392;29;20052;-71
2022/03/14 06:12:24;;;;;;;6.68;4.40;;;9.30;99.90;;;;;;4862862;29;20087;-71
2022/03/14 06:14:55;;;;;;;9.25;4.80;;;8.50;99.90;;;;;;4862342;29;20049;-71
2022/03/14 06:17:21;;;;;;;9.50;5.57;;;;;;;;;;4860707;29;20494;-71
2022/03/14 06:19:48;;;;;;;15.25;5.38;;;;;;;;;;4847005;29;20045;-71
2022/03/14 06:22:17;;;;;;;7.35;4.95;;;;;;;;;;4859907;29;20044;-71
2022/03/14 06:24:46;;;;;;;11.13;5.03;;;;;;;;;;4853999;29;20041;-71
2022/03/14 06:27:13;;;;;;;6.10;4.57;;;9.60;99.90;;;;;;4863102;29;20049;-71
2022/03/14 06:29:39;;;;;;;8.05;5.00;;;;;;;;;;4855170;29;20049;-71
2022/03/14 06:32:05;;;;;;;7.45;5.20;;;9.70;99.90;;;;;;4857532;29;20104;-71
2022/03/14 06:34:31;;;;;;;6.43;4.80;;;;;;;;;;4861875;29;20160;-71
2022/03/14 06:36:57;;;;;;;8.30;5.13;;;;;;;;;;4865020;29;20052;-71
2022/03/14 06:39:24;;;;;;;8.20;5.18;;;;;;;;;;4852615;29;20041;-71
2022/03/14 06:41:50;;;;;;;7.43;5.25;;;;;;;;;;4862338;29;20462;-70
2022/03/14 06:44:18;;;;;;;7.80;5.13;;;;;;;;;;4861970;29;20041;-71
2022/03/14 06:46:44;;;;;;;10.57;5.22;;;8.80;99.90;;;;;;4850001;29;20056;-70
2022/03/14 06:49:13;;;;;;;10.48;5.57;;;;;;;;;;4862438;29;20083;-71
2022/03/14 06:51:41;;;;;;;8.68;5.53;;;;;;;;;;4862170;29;20044;-71
2022/03/14 06:54:08;;;;;;;13.00;7.22;;;;;;;;;;4861745;29;20060;-70
2022/03/14 06:56:34;;;;;;;9.88;6.15;;;;;;;;;;4862085;29;20426;-71
2022/03/14 06:59:00;;;;;;;10.35;6.25;;;9.70;99.90;;;;;;4850263;29;20045;-70
2022/03/14 07:01:30;;;;;;;8.90;6.70;;;;;;;;;;4845182;29;20069;-71
2022/03/14 07:03:56;;;;;;;8.73;6.35;;;;;;;;;;4849799;29;20120;-71
2022/03/14 07:06:22;;;;;;;10.57;6.80;;;;;;;;;;4844686;29;20140;-71
2022/03/14 07:08:48;;;;;;;9.38;6.20;;;;;;;;;;4856106;29;20045;-70
2022/03/14 07:11:14;;;;;;;11.05;6.80;;;;;;;;;;4847433;29;20037;-70
2022/03/14 07:13:40;;;;;;;9.75;6.80;;;;;;;;;;4847943;29;20045;-70
2022/03/14 07:16:06;;;;;;;20.40;7.28;;;;;;;;;;4857935;29;20046;-71
2022/03/14 07:18:34;;;;;;;12.30;7.75;;;;;;;;;;4862424;29;20149;-70
2022/03/14 07:21:00;;;;;;;13.88;7.72;;;;;;;;;;4862844;29;20045;-70
2022/03/14 07:23:26;;;;;;;12.15;8.13;;;;;;;;;;4863031;29;20132;-71
2022/03/14 07:25:52;;;;;;;11.18;7.88;;;;;;;;;;4862765;29;20049;-72
2022/03/14 07:28:18;;;;;;;15.85;8.15;;;;;;;;;;4847772;29;20460;-71
2022/03/14 07:30:45;;;;;;;11.50;7.88;;;;;;;;;;4862946;29;20041;-70
2022/03/14 07:33:11;;;;;;;11.52;8.13;;;9.40;99.90;;;;;;4847627;29;20391;-70
2022/03/14 07:35:37;;;;;;;12.00;7.63;;;;;;;;;;4847459;29;20055;-70
2022/03/14 07:38:03;;;;;;;17.00;8.90;;;;;;;;;;4862784;29;20049;-70
2022/03/14 07:40:30;;;;;;;14.45;8.75;;;;;;;;;;4862855;29;20387;-70
2022/03/14 07:42:59;;;;;;;11.93;8.65;;;;;;;;;;4860069;29;20068;-70
2022/03/14 07:45:26;;;;;;;12.40;8.23;;;8.70;99.90;;;;;;4861421;29;20037;-70
2022/03/14 07:47:56;;;;;;;13.57;9.00;;;;;;;;;;4859805;29;20076;-69
2022/03/14 07:50:25;;;;;;;12.88;8.93;;;10.50;99.90;;;;;;4861427;29;20124;-69
2022/03/14 07:52:52;;;;;;;13.43;9.38;;;;;;;;;;4860036;29;20093;-69
2022/03/14 07:55:18;;;;;;;16.75;9.90;;;;;;;;;;4861337;29;20049;-69
2022/03/14 07:57:44;;;;;;;13.13;9.35;;;;;;;;;;4845587;29;20488;-69
2022/03/14 08:00:14;;;;;;;18.88;10.38;;;9.70;99.90;;;;;;4861681;29;20374;-69
2022/03/14 08:02:40;;;;;;;12.57;8.88;;;;;;;;;;4860823;29;20486;-69
2022/03/14 08:05:10;;;;;;;12.90;8.90;;;9.70;99.90;;;;;;4845630;29;20045;-69
2022/03/14 08:07:37;;;;;;;14.23;9.25;;;;;;;;;;4861430;29;20104;-69
2022/03/14 08:10:09;;;;;;;16.73;10.38;;;;;;;;;;4861402;29;20060;-69
2022/03/14 08:12:49;;;;;;;15.43;10.30;;;9.60;99.90;;;;;;4838030;29;20060;-69
2022/03/14 08:15:35;;;;;;;20.65;10.75;;;;;;;;;;4861067;29;20184;-69
2022/03/14 08:18:03;;;;;;;17.95;11.00;;;9.60;99.90;;;;;;4861025;29;20502;-69
2022/03/14 08:20:30;;;;;;;14.80;10.35;;;;;;;;;;4859873;29;20471;-69
2022/03/14 08:22:57;;;;;;;17.00;11.55;;;;;;;;;;4856293;29;20080;-69
2022/03/14 08:25:24;;;;;;;17.73;12.02;;;;;;;;;;4840415;29;20478;-69
2022/03/14 08:27:50;;;;;;;17.33;12.23;;;;;;;;;;4860760;29;20132;-70
2022/03/14 08:30:16;;;;;;;20.30;13.60;;;;;;;;;;4861815;29;20577;-72
2022/03/14 08:32:43;;;;;;;17.83;12.05;;;;;;;;;;4862375;29;20052;-73
2022/03/14 08:35:10;;;;;;;20.70;13.30;;;9.60;99.90;;;;;;4847317;29;20405;-73
2022/03/14 08:37:40;;;;;;;18.50;12.95;;;10.60;99.90;;;;;;4862484;29;20057;-72
2022/03/14 08:40:07;;;;;;;23.77;13.32;;;;;;;;;;4863202;29;20068;-72
2022/03/14 08:42:34;;;;;;;24.63;15.10;;;;;;;;;;4865788;29;20347;-73
2022/03/14 08:45:00;;;;;;;32.95;18.58;;;;;;;;;;4865632;29;20041;-72
2022/03/14 08:47:26;;;;;;;34.45;18.15;;;;;;;;;;4865524;29;20460;-73
2022/03/14 08:49:52;;;;;;;43.05;21.77;;;;;;;;;;4850443;29;20394;-72
2022/03/14 08:52:18;;;;;;;47.55;22.17;;;;;;;;;;4850253;29;20048;-72
2022/03/14 08:54:45;;;;;;;48.25;22.02;;;;;;;;;;4865434;29;20069;-72
2022/03/14 08:57:11;;;;;;;50.88;21.88;;;8.70;99.90;;;;;;4852094;29;21389;-72
2022/03/14 08:59:37;;;;;;;46.70;21.67;;;;;;;;;;4884019;29;20059;-72
2022/03/14 09:02:03;;;;;;;51.78;22.55;;;10.20;99.90;;;;;;4868718;29;20101;-72
2022/03/14 09:04:29;;;;;;;55.65;23.25;;;;;;;;;;4868833;29;20434;-72
2022/03/14 09:06:55;;;;;;;48.97;21.40;;;;;;;;;;4883937;29;20051;-72
2022/03/14 09:09:21;;;;;;;52.15;23.33;;;;;;;;;;4884314;29;20135;-72
2022/03/14 09:11:47;;;;;;;49.70;21.35;;;8.80;99.90;;;;;;4883924;29;20046;-72
2022/03/14 09:14:13;;;;;;;52.22;22.50;;;;;;;;;;4884152;29;20058;-72
2022/03/14 09:16:39;;;;;;;42.85;20.20;;;;;;;;;;4899133;29;20045;-73
2022/03/14 09:19:05;;;;;;;48.83;20.08;;;;;;;;;;4868346;29;20047;-72
2022/03/14 09:21:32;;;;;;;46.10;20.25;;;;;;;;;;4883697;29;20049;-72
2022/03/14 09:23:58;;;;;;;43.83;18.92;;;;;;;;;;4883593;29;20119;-72
2022/03/14 09:26:24;;;;;;;42.85;18.98;;;9.30;99.90;;;;;;4883697;29;20048;-72
2022/03/14 09:28:50;;;;;;;37.97;15.98;;;;;;;;;;4883717;29;20044;-72
2022/03/14 09:31:17;;;;;;;36.15;15.60;;;9.40;99.90;;;;;;4883494;29;20540;-72
2022/03/14 09:33:43;;;;;;;38.47;15.52;;;;;;;;;;4883192;29;20103;-72
2022/03/14 09:36:09;;;;;;;32.92;15.63;;;;;;;;;;4867896;29;20131;-72
2022/03/14 09:38:35;;;;;;;34.05;14.45;;;;;;;;;;4883184;29;20085;-72
2022/03/14 09:41:03;;;;;;;33.00;14.00;;;9.50;99.90;;;;;;4883326;29;20037;-72
2022/03/14 09:43:37;;;;;;;34.70;12.48;;;9.30;99.90;;;;;;4883247;29;20120;-72
2022/03/14 09:46:06;;;;;;;32.30;13.02;;;9.70;99.90;;;;;;4867905;29;20413;-72
2022/03/14 09:48:36;;;;;;;30.48;12.05;;;9.80;99.90;;;;;;4868008;29;20044;-72
2022/03/14 09:51:04;;;;;;;30.92;11.45;;;9.60;99.90;;;;;;4882851;29;20052;-72
2022/03/14 09:53:31;;;;;;;23.75;9.85;;;;;;;;;;4882091;29;20409;-72
2022/03/14 09:55:57;;;;;;;24.13;9.85;;;;;;;;;;4883027;29;20059;-72
2022/03/14 09:58:23;;;;;;;23.10;8.23;;;;;;;;;;4882809;29;20044;-72
2022/03/14 10:00:50;;;;;;;17.92;6.00;;;9.80;99.90;;;;;;4882962;29;20044;-72
2022/03/14 10:03:17;;;;;;;15.57;5.38;;;9.90;99.90;;;;;;4867538;29;20040;-72
2022/03/14 10:05:44;;;;;;;18.98;5.97;;;;;;;;;;4882938;29;20048;-72
2022/03/14 10:08:10;;;;;;;17.77;5.70;;;9.70;99.90;;;;;;4869854;29;20044;-73
2022/03/14 10:10:37;;;;;;;23.58;6.63;;;;;;;;;;4860443;29;20487;-72
2022/03/14 10:13:08;;;;;;;18.05;6.63;;;9.70;99.90;;;;;;4852775;29;20041;-73
2022/03/14 10:15:37;;;;;;;20.70;6.88;;;;;;;;;;4863815;29;20087;-73
2022/03/14 10:18:18;;;;;;;20.90;6.88;;;10.00;99.90;;;;;;4863646;29;20064;-73
2022/03/14 10:20:56;;;;;;;20.08;7.22;;;;;;;;;;4848597;29;20371;-72
2022/03/14 10:23:51;;;;;;;18.77;6.65;;;9.70;99.90;;;;;;4863879;29;20124;-73
2022/03/14 10:26:19;;;;;;;15.73;6.75;;;10.00;99.90;;;;;;4856143;29;20056;-73
2022/03/14 10:28:49;;;;;;;16.70;7.07;;;;;;;;;;4860790;29;20041;-73
2022/03/14 10:31:27;;;;;;;17.08;6.30;;;9.80;99.90;;;;;;4859072;29;20044;-73
2022/03/14 10:34:04;;;;;;;24.20;7.72;;;9.80;99.90;;;;;;4863596;29;20397;-73
2022/03/14 10:36:45;;;;;;;19.02;7.10;;;9.70;99.90;;;;;;4863622;29;20037;-73
2022/03/14 10:39:27;;;;;;;20.70;7.05;;;9.90;99.90;;;;;;4853452;29;20393;-73
2022/03/14 10:42:13;;;;;;;18.88;7.38;;;10.00;99.90;;;;;;4845210;29;20116;-73
2022/03/14 10:44:41;;;;;;;18.35;8.07;;;9.90;99.90;;;;;;4860838;29;20127;-73
2022/03/14 10:47:09;;;;;;;23.50;9.13;;;;;;;;;;4863747;29;20053;-73
2022/03/14 10:49:37;;;;;;;24.20;8.40;;;;;;;;;;4862722;29;20505;-73
2022/03/14 10:52:08;;;;;;;22.55;8.18;;;9.40;99.90;;;;;;4844703;29;20494;-73
2022/03/14 10:54:35;;;;;;;22.02;8.30;;;;;;;;;;4858808;29;20065;-73
2022/03/14 10:57:14;;;;;;;27.33;9.20;;;10.80;99.90;;;;;;4863115;29;20410;-72
2022/03/14 10:59:43;;;;;;;20.88;9.05;;;9.80;99.90;;;;;;4862666;29;20502;-72
2022/03/14 11:02:17;;;;;;;22.83;9.57;;;9.90;99.90;;;;;;4863135;29;20052;-73
2022/03/14 11:04:47;;;;;;;22.15;10.00;;;;;;;;;;4862822;29;20037;-73
2022/03/14 11:07:14;;;;;;;34.22;10.93;;;;;;;;;;4863584;29;20049;-73
2022/03/14 11:09:42;;;;;;;25.65;11.95;;;10.20;99.90;;;;;;4859906;29;20520;-74
2022/03/14 11:12:13;;;;;;;32.50;11.63;;;9.90;99.90;;;;;;4845142;29;20053;-73
2022/03/14 11:14:39;;;;;;;27.52;11.80;;;;;;;;;;4856462;29;20068;-74
2022/03/14 11:17:17;;;;;;;25.23;12.50;;;10.30;99.90;;;;;;4844265;29;20048;-73
2022/03/14 11:19:44;;;;;;;30.00;13.70;;;;;;;;;;4856789;29;20435;-73
2022/03/14 11:22:11;;;;;;;29.23;13.57;;;;;;;;;;4870902;29;20060;-72
2022/03/14 11:24:42;;;;;;;31.88;14.07;;;;;;;;;;4868111;29;20055;-72
2022/03/14 11:27:13;;;;;;;28.95;14.23;;;10.10;99.90;;;;;;4846116;29;20049;-72
2022/03/14 11:29:40;;;;;;;32.53;13.90;;;10.30;99.90;;;;;;4878125;29;20541;-72
2022/03/14 11:32:07;;;;;;;35.50;14.20;;;;;;;;;;4863028;29;20080;-72
2022/03/14 11:34:35;;;;;;;34.22;14.40;;;10.20;99.90;;;;;;4862924;29;20538;-72
2022/03/14 11:37:02;;;;;;;32.20;13.85;;;10.10;99.90;;;;;;4848943;29;20053;-72
2022/03/14 11:39:28;;;;;;;35.05;12.80;;;;;;;;;;4853372;29;20047;-72
2022/03/14 11:41:55;;;;;;;37.45;13.43;;;10.50;99.90;;;;;;4862668;29;20128;-72
2022/03/14 11:44:24;;;;;;;37.38;14.10;;;10.20;99.90;;;;;;4859390;29;20124;-71
2022/03/14 11:46:52;;;;;;;29.90;12.93;;;10.30;99.90;;;;;;4855289;29;20052;-71
2022/03/14 11:49:18;;;;;;;40.35;12.50;;;;;;;;;;4862177;29;20132;-72
2022/03/14 11:51:45;;;;;;;27.25;12.75;;;;;;;;;;4859561;29;20402;-72
2022/03/14 11:54:12;;;;;;;32.63;12.82;;;10.30;99.90;;;;;;4848850;29;20072;-72
2022/03/14 11:56:38;;;;;;;25.65;10.77;;;;;;;;;;4879070;29;20088;-72
2022/03/14 11:59:11;;;;;;;33.40;12.32;;;10.40;99.90;;;;;;4862303;29;20104;-72
2022/03/14 12:01:50;;;;;;;31.05;12.13;;;10.40;99.90;;;;;;4862703;29;20057;-72
2022/03/14 12:04:29;;;;;;;31.83;10.38;;;10.40;99.90;;;;;;4861917;29;20045;-72
2022/03/14 12:06:58;;;;;;;23.75;10.25;;;11.10;99.90;;;;;;4854522;29;20093;-71
2022/03/14 12:09:26;;;;;;;27.90;10.48;;;10.50;99.90;;;;;;4846532;29;20127;-72
2022/03/14 12:12:16;;;;;;;32.60;9.65;;;10.70;99.90;;;;;;4859225;29;20178;-72
2022/03/14 12:14:43;;;;;;;37.85;9.25;;;10.50;99.90;;;;;;4849704;29;20052;-72
2022/03/14 12:17:15;;;;;;;22.05;9.27;;;10.60;99.90;;;;;;4861882;29;20045;-72
2022/03/14 12:19:54;;;;;;;28.98;10.20;;;9.70;99.90;;;;;;4847717;29;20041;-72
2022/03/14 12:22:37;;;;;;;24.10;9.63;;;10.50;99.90;;;;;;4847857;29;20462;-72
2022/03/14 12:25:05;;;;;;;29.08;8.88;;;10.70;99.90;;;;;;4847741;29;20041;-72
2022/03/14 12:27:37;;;;;;;31.88;9.25;;;10.60;99.90;;;;;;4847262;29;20550;-72
2022/03/14 12:30:15;;;;;;;28.25;9.93;;;9.70;99.90;;;;;;4847443;29;20049;-72
2022/03/14 12:32:52;;;;;;;29.02;10.38;;;10.10;99.90;;;;;;4847442;29;20133;-72
2022/03/14 12:35:29;;;;;;;27.33;9.35;;;;;;;;;;4862790;29;20057;-72
2022/03/14 12:38:21;;;;;;;22.13;8.02;;;11.50;99.90;;;;;;4831853;29;20046;-72
2022/03/14 12:40:49;;;;;;;21.43;8.77;;;11.60;99.90;;;;;;4847611;29;20452;-72
2022/03/14 12:43:21;;;;;;;19.60;8.35;;;11.50;99.90;;;;;;4850648;29;20040;-72
2022/03/14 12:45:58;;;;;;;;;;;11.10;99.90;;;;;;4884897;29;20041;-73
2022/03/14 12:48:27;;;;;;;23.85;7.68;;;;;;;;;;4875159;29;20011;-75
2022/03/14 12:50:55;;;;;;;23.63;8.18;;;11.00;99.90;;;;;;4864872;29;20048;-73
2022/03/14 12:53:29;;;;;;;33.35;9.38;;;11.90;99.90;;;;;;4865147;29;20049;-72
2022/03/14 12:56:00;;;;;;;30.75;7.90;;;;;;;;;;4847014;29;20118;-72
2022/03/14 12:58:33;;;;;;;19.05;7.35;;;;;;;;;;4846881;29;20081;-73
2022/03/14 13:01:03;;;;;;;;;;;11.30;99.90;;;;;;4857420;29;20041;-73
2022/03/14 13:03:34;;;;;;;20.23;7.25;;;11.30;99.90;;;;;;4865410;29;19919;-73
2022/03/14 13:06:01;;;;;;;20.42;7.63;;;11.20;99.90;;;;;;4862178;29;20052;-73
2022/03/14 13:08:27;;;;;;;22.95;6.82;;;;;;;;;;4854951;29;20120;-72
2022/03/14 13:10:58;;;;;;;16.33;6.38;;;11.50;99.90;;;;;;4845796;29;20049;-73
2022/03/14 13:13:32;;;;;;;19.13;5.90;;;11.50;99.90;;;;;;4831656;29;20048;-73
2022/03/14 13:16:08;;;;;;;19.25;6.20;;;11.90;99.90;;;;;;4840396;29;20490;-73
2022/03/14 13:18:53;;;;;;;22.50;7.25;;;11.60;99.90;;;;;;4865050;29;20489;-73
2022/03/14 13:21:23;;;;;;;24.80;6.55;;;11.70;99.90;;;;;;4849161;29;20128;-73
2022/03/14 13:23:57;;;;;;;23.13;6.45;;;;;;;;;;4864761;29;20128;-73
2022/03/14 13:26:24;;;;;;;26.77;6.43;;;11.70;99.90;;;;;;4864331;29;20041;-73
2022/03/14 13:28:51;;;;;;;17.20;5.70;;;11.80;99.90;;;;;;4880394;29;20052;-74
2022/03/14 13:31:17;;;;;;;16.58;6.43;;;11.90;99.60;;;;;;4864647;29;20053;-71
2022/03/14 13:33:47;;;;;;;19.00;6.45;;;11.90;99.90;;;;;;4864577;29;20041;-73
2022/03/14 13:36:15;;;;;;;26.63;6.35;;;11.40;99.90;;;;;;4880147;29;20099;-73
2022/03/14 13:38:44;;;;;;;22.27;6.53;;;;;;;;;;4863913;29;20045;-73
2022/03/14 13:41:24;;;;;;;19.40;6.20;;;12.10;99.70;;;;;;4864720;29;20076;-73
2022/03/14 13:43:51;;;;;;;20.60;6.75;;;;;;;;;;4864782;29;20048;-73
2022/03/14 13:46:28;;;;;;;20.00;6.40;;;;;;;;;;4849333;29;20064;-73